Time;durP1;ratioP1;P1;durP2;ratioP2;P2;SDS_P1;SDS_P2;PMS_P1;PMS_P2;Temp;Humidity;BMP_temperature;BMP_pressure;BME280_temperature;BME280_humidity;BME280_pressure;Samples;Min_cycle;Max_cycle;Signal;HPM_P1;HPM_P2
2021/09/07 00:00:15;;;;;;;10.50;6.80;;;17.00;99.90;;;;;;5015770;28;20049;-82
2021/09/07 00:02:42;;;;;;;11.70;7.18;;;17.00;99.90;;;;;;4998919;28;20030;-82
2021/09/07 00:05:09;;;;;;;11.15;6.88;;;16.90;99.90;;;;;;4998519;28;20026;-82
2021/09/07 00:07:35;;;;;;;12.55;6.80;;;16.90;99.90;;;;;;5027425;28;20508;-82
2021/09/07 00:10:04;;;;;;;11.43;7.72;;;16.80;99.90;;;;;;5004220;28;20034;-81
2021/09/07 00:12:29;;;;;;;13.27;7.82;;;16.80;99.90;;;;;;4981716;28;20120;-81
2021/09/07 00:14:55;;;;;;;11.45;7.13;;;16.80;99.90;;;;;;4980769;28;20026;-81
2021/09/07 00:17:21;;;;;;;12.35;7.85;;;16.80;99.90;;;;;;4998967;28;20382;-81
2021/09/07 00:19:47;;;;;;;12.65;7.78;;;16.80;99.90;;;;;;4998250;28;20022;-81
2021/09/07 00:22:12;;;;;;;10.98;7.18;;;16.80;99.90;;;;;;5017024;28;20061;-81
2021/09/07 00:24:38;;;;;;;12.65;7.60;;;16.70;99.90;;;;;;5016524;28;20410;-81
2021/09/07 00:27:04;;;;;;;13.60;7.22;;;16.70;99.90;;;;;;5015771;28;20033;-81
2021/09/07 00:29:29;;;;;;;15.32;7.47;;;16.70;99.90;;;;;;5016166;28;20097;-81
2021/09/07 00:31:56;;;;;;;15.05;7.75;;;16.70;99.90;;;;;;5016446;28;20104;-81
2021/09/07 00:34:21;;;;;;;12.57;7.85;;;16.70;99.90;;;;;;5006412;28;20039;-81
2021/09/07 00:36:47;;;;;;;11.77;7.35;;;16.60;99.90;;;;;;5017901;28;20030;-81
2021/09/07 00:39:13;;;;;;;11.45;7.10;;;16.60;99.90;;;;;;5031430;28;20517;-80
2021/09/07 00:41:40;;;;;;;11.88;7.13;;;16.60;99.90;;;;;;5025147;28;20022;-81
2021/09/07 00:44:20;;;;;;;10.95;7.30;;;16.50;99.90;;;;;;5027726;28;20033;-81
2021/09/07 00:47:06;;;;;;;15.30;8.18;;;16.50;99.90;;;;;;5001665;28;20047;-80
2021/09/07 00:49:32;;;;;;;11.98;7.78;;;16.50;99.90;;;;;;5030202;28;20039;-80
2021/09/07 00:51:58;;;;;;;14.60;8.48;;;16.50;99.90;;;;;;5025158;28;20037;-81
2021/09/07 00:54:29;;;;;;;14.15;8.50;;;16.50;99.90;;;;;;5035717;28;20064;-81
2021/09/07 00:56:55;;;;;;;12.70;8.18;;;16.40;99.90;;;;;;5035528;28;20071;-81
2021/09/07 00:59:22;;;;;;;12.75;7.85;;;16.40;99.90;;;;;;5029082;23;20050;-83
2021/09/07 01:01:48;;;;;;;12.55;7.97;;;16.40;99.90;;;;;;5026479;28;20026;-83
2021/09/07 01:04:14;;;;;;;12.00;8.00;;;16.40;99.90;;;;;;5024149;28;20049;-85
2021/09/07 01:06:40;;;;;;;11.02;7.40;;;16.30;99.90;;;;;;5011513;28;20800;-84
2021/09/07 01:09:07;;;;;;;12.32;7.78;;;16.30;99.90;;;;;;5027436;28;20182;-84
2021/09/07 01:11:33;;;;;;;12.70;7.72;;;16.30;99.90;;;;;;5030352;28;20080;-84
2021/09/07 01:14:00;;;;;;;11.30;7.60;;;16.30;99.90;;;;;;5029644;28;20030;-84
2021/09/07 01:16:25;;;;;;;10.93;7.28;;;16.20;99.90;;;;;;5031967;28;20057;-84
2021/09/07 01:18:51;;;;;;;13.68;7.80;;;16.20;99.90;;;;;;5033165;28;20022;-84
2021/09/07 01:21:18;;;;;;;13.52;7.82;;;16.20;99.90;;;;;;5031218;28;20030;-84
2021/09/07 01:23:45;;;;;;;15.02;8.20;;;16.20;99.90;;;;;;5031320;28;20033;-84
2021/09/07 01:26:15;;;;;;;12.23;7.55;;;16.00;99.90;;;;;;5031726;28;20026;-84
2021/09/07 01:28:40;;;;;;;12.95;8.10;;;16.10;99.90;;;;;;5027538;28;20057;-84
2021/09/07 01:31:07;;;;;;;12.55;8.40;;;16.10;99.90;;;;;;5015711;28;20026;-84
2021/09/07 01:33:34;;;;;;;12.80;7.60;;;16.00;99.90;;;;;;5019851;28;20039;-83
2021/09/07 01:36:01;;;;;;;12.85;7.88;;;16.00;99.90;;;;;;5046070;28;20056;-84
2021/09/07 01:38:28;;;;;;;12.35;8.63;;;16.00;99.90;;;;;;5034614;28;20022;-83
2021/09/07 01:40:54;;;;;;;13.35;8.23;;;15.80;99.90;;;;;;5033823;28;20025;-84
2021/09/07 01:43:20;;;;;;;13.23;8.07;;;15.90;99.90;;;;;;5034287;28;20085;-84
2021/09/07 01:45:47;;;;;;;12.50;8.68;;;15.90;99.90;;;;;;5034179;28;20041;-83
2021/09/07 01:48:19;;;;;;;15.27;8.82;;;15.90;99.90;;;;;;5033311;28;20117;-84
2021/09/07 01:50:46;;;;;;;15.10;9.13;;;15.90;99.90;;;;;;5034645;28;20041;-84
2021/09/07 01:53:12;;;;;;;13.73;8.80;;;15.90;99.90;;;;;;5034130;28;20037;-84
2021/09/07 01:55:38;;;;;;;16.77;8.35;;;15.70;99.90;;;;;;5033559;28;20025;-84
2021/09/07 01:58:04;;;;;;;16.05;8.65;;;15.80;99.90;;;;;;5032136;28;20038;-84
2021/09/07 02:00:30;;;;;;;13.30;8.18;;;15.80;99.90;;;;;;5046511;28;20034;-84
2021/09/07 02:02:55;;;;;;;14.38;8.45;;;15.80;99.90;;;;;;5052258;28;20033;-84
2021/09/07 02:05:21;;;;;;;12.32;8.27;;;15.80;99.90;;;;;;5052909;28;20060;-83
2021/09/07 02:07:47;;;;;;;12.45;7.93;;;15.80;99.90;;;;;;5056974;28;20084;-84
2021/09/07 02:10:13;;;;;;;13.13;8.45;;;15.80;99.90;;;;;;5056238;28;20163;-84
2021/09/07 02:12:39;;;;;;;12.20;8.35;;;15.80;99.90;;;;;;5064521;28;20013;-84
2021/09/07 02:15:07;;;;;;;14.43;8.68;;;15.70;99.90;;;;;;5054926;28;20013;-83
2021/09/07 02:17:33;;;;;;;12.65;8.13;;;15.70;99.90;;;;;;5054937;28;20478;-84
2021/09/07 02:19:59;;;;;;;13.13;8.57;;;15.70;99.90;;;;;;5036861;28;20030;-84
2021/09/07 02:22:25;;;;;;;15.48;9.95;;;15.60;99.90;;;;;;5042724;28;20363;-84
2021/09/07 02:24:51;;;;;;;18.05;9.25;;;15.50;99.90;;;;;;5037378;28;20069;-83
2021/09/07 02:27:17;;;;;;;15.73;7.97;;;15.60;99.90;;;;;;5055619;28;20030;-83
2021/09/07 02:29:43;;;;;;;13.88;8.90;;;15.60;99.90;;;;;;5054834;28;20213;-84
2021/09/07 02:32:09;;;;;;;14.65;9.10;;;15.50;99.90;;;;;;5033436;28;20025;-83
2021/09/07 02:34:35;;;;;;;14.55;9.25;;;15.50;99.90;;;;;;5053893;28;20124;-84
2021/09/07 02:37:01;;;;;;;15.73;8.63;;;15.60;99.90;;;;;;5054157;28;20075;-84
2021/09/07 02:39:27;;;;;;;16.92;9.48;;;15.50;99.90;;;;;;5053091;28;20026;-84
2021/09/07 02:41:52;;;;;;;15.55;9.05;;;15.50;99.90;;;;;;5028782;28;20049;-84
2021/09/07 02:44:18;;;;;;;17.15;9.13;;;15.50;99.90;;;;;;5030126;28;20029;-84
2021/09/07 02:46:45;;;;;;;14.30;9.23;;;15.40;99.90;;;;;;5029810;28;20034;-84
2021/09/07 02:49:12;;;;;;;18.55;9.63;;;15.40;99.90;;;;;;5025870;28;20040;-85
2021/09/07 02:51:37;;;;;;;16.02;9.38;;;15.40;99.90;;;;;;5032867;28;20033;-84
2021/09/07 02:54:03;;;;;;;18.45;9.57;;;15.40;99.90;;;;;;5033184;28;20098;-84
2021/09/07 02:56:29;;;;;;;14.10;9.40;;;15.40;99.90;;;;;;5033121;28;20033;-84
2021/09/07 02:58:55;;;;;;;15.88;9.40;;;15.40;99.90;;;;;;5050161;28;20048;-83
2021/09/07 03:01:21;;;;;;;18.23;9.50;;;15.30;99.90;;;;;;5040359;28;20030;-85
2021/09/07 03:03:46;;;;;;;13.90;9.25;;;15.30;99.90;;;;;;5051914;28;20064;-84
2021/09/07 03:06:12;;;;;;;15.07;9.02;;;15.50;99.90;;;;;;5053047;28;20029;-84
2021/09/07 03:08:38;;;;;;;14.75;9.02;;;15.30;99.90;;;;;;5051108;28;20029;-84
2021/09/07 03:11:05;;;;;;;15.63;10.13;;;15.30;99.90;;;;;;5044787;28;20040;-84
2021/09/07 03:13:31;;;;;;;12.30;8.32;;;15.20;99.90;;;;;;5052829;28;20077;-84
2021/09/07 03:15:57;;;;;;;16.30;9.60;;;15.20;99.90;;;;;;5053226;28;20044;-84
2021/09/07 03:18:22;;;;;;;16.73;9.75;;;15.20;99.90;;;;;;5052386;28;20104;-84
2021/09/07 03:20:48;;;;;;;15.27;9.00;;;15.30;99.90;;;;;;5039352;28;20486;-84
2021/09/07 03:23:14;;;;;;;12.27;8.40;;;15.20;99.90;;;;;;5053461;28;20410;-84
2021/09/07 03:25:40;;;;;;;14.85;8.93;;;15.20;99.90;;;;;;5053612;28;20017;-84
2021/09/07 03:28:06;;;;;;;15.07;9.52;;;15.20;99.90;;;;;;5051391;28;20035;-83
2021/09/07 03:30:31;;;;;;;15.90;9.52;;;15.20;99.90;;;;;;5035989;28;20016;-84
2021/09/07 03:32:57;;;;;;;16.35;9.73;;;15.10;99.90;;;;;;5052570;28;20020;-84
2021/09/07 03:35:23;;;;;;;15.25;9.32;;;15.10;99.90;;;;;;5051142;28;20030;-84
2021/09/07 03:37:48;;;;;;;17.77;9.90;;;15.00;99.90;;;;;;5042211;28;20033;-84
2021/09/07 03:40:14;;;;;;;15.13;9.25;;;15.00;99.90;;;;;;5041576;28;20371;-84
2021/09/07 03:42:41;;;;;;;14.48;9.10;;;14.90;99.90;;;;;;5045628;28;20034;-84
2021/09/07 03:45:11;;;;;;;14.43;9.30;;;14.90;99.90;;;;;;5051163;28;20014;-84
2021/09/07 03:47:46;;;;;;;15.40;9.82;;;14.90;99.90;;;;;;5052028;28;20109;-84
2021/09/07 03:50:14;;;;;;;14.48;9.25;;;14.90;99.90;;;;;;5053379;28;20037;-84
2021/09/07 03:52:40;;;;;;;14.32;8.98;;;14.90;99.90;;;;;;5036238;28;20124;-84
2021/09/07 03:55:07;;;;;;;13.30;8.93;;;14.90;99.90;;;;;;5052274;28;20030;-84
2021/09/07 03:57:32;;;;;;;15.18;9.35;;;14.90;99.90;;;;;;5052421;28;20033;-84
2021/09/07 03:59:58;;;;;;;14.55;9.32;;;14.90;99.90;;;;;;5053452;28;20043;-84
2021/09/07 04:02:25;;;;;;;15.23;10.00;;;14.80;99.90;;;;;;5053390;28;20021;-85
2021/09/07 04:04:51;;;;;;;14.85;8.77;;;14.70;99.90;;;;;;5052535;28;20088;-84
2021/09/07 04:07:17;;;;;;;13.05;9.00;;;14.80;99.90;;;;;;5052962;28;20034;-84
2021/09/07 04:09:43;;;;;;;15.65;8.88;;;14.70;99.90;;;;;;5059427;28;20060;-84
2021/09/07 04:12:09;;;;;;;11.90;8.25;;;14.70;99.90;;;;;;5053198;28;20029;-84
2021/09/07 04:14:35;;;;;;;15.40;9.15;;;14.70;99.90;;;;;;5053006;28;20040;-84
2021/09/07 04:17:02;;;;;;;13.68;8.73;;;14.60;99.90;;;;;;5035574;28;20037;-84
2021/09/07 04:19:28;;;;;;;14.07;9.02;;;14.60;99.90;;;;;;5052459;28;20026;-84
2021/09/07 04:21:54;;;;;;;16.00;8.93;;;14.50;99.90;;;;;;5052793;28;20044;-83
2021/09/07 04:24:19;;;;;;;14.52;8.82;;;14.50;99.90;;;;;;5035771;28;20021;-84
2021/09/07 04:26:45;;;;;;;13.70;8.80;;;14.80;99.90;;;;;;5052455;28;20068;-84
2021/09/07 04:29:10;;;;;;;13.38;8.73;;;14.60;99.90;;;;;;5047475;28;20401;-84
2021/09/07 04:31:36;;;;;;;14.55;9.38;;;14.60;99.90;;;;;;5030802;28;20037;-84
2021/09/07 04:34:03;;;;;;;14.18;9.50;;;14.60;99.90;;;;;;5033169;28;20037;-84
2021/09/07 04:36:28;;;;;;;15.55;9.60;;;14.50;99.90;;;;;;5033833;28;20036;-85
2021/09/07 04:38:54;;;;;;;13.43;8.90;;;14.50;99.90;;;;;;5050043;28;20025;-84
2021/09/07 04:41:20;;;;;;;14.30;9.23;;;14.40;99.90;;;;;;5052134;28;20026;-84
2021/09/07 04:43:46;;;;;;;14.70;10.05;;;14.40;99.90;;;;;;5051513;28;20022;-84
2021/09/07 04:46:11;;;;;;;14.23;9.10;;;14.40;99.90;;;;;;5044300;28;20053;-85
2021/09/07 04:48:37;;;;;;;13.85;9.23;;;14.40;99.90;;;;;;5041778;28;20048;-84
2021/09/07 04:51:02;;;;;;;14.65;8.77;;;14.40;99.90;;;;;;5026234;28;20064;-84
2021/09/07 04:53:31;;;;;;;17.83;10.18;;;14.40;99.90;;;;;;5043318;28;20033;-84
2021/09/07 04:55:56;;;;;;;17.13;9.18;;;14.40;99.90;;;;;;5044646;28;20044;-84
2021/09/07 04:58:22;;;;;;;14.38;9.25;;;14.40;99.90;;;;;;5022148;28;20025;-84
2021/09/07 05:00:48;;;;;;;13.30;8.40;;;14.40;99.90;;;;;;5031479;28;20029;-84
2021/09/07 05:03:14;;;;;;;14.45;8.75;;;14.40;99.90;;;;;;5052400;28;20026;-85
2021/09/07 05:05:39;;;;;;;14.88;9.23;;;14.40;99.90;;;;;;5052907;28;20104;-85
2021/09/07 05:08:05;;;;;;;17.55;9.20;;;14.50;99.90;;;;;;5041385;28;20017;-84
2021/09/07 05:10:31;;;;;;;15.70;9.57;;;14.40;99.90;;;;;;5075011;28;20025;-85
2021/09/07 05:12:56;;;;;;;15.98;9.05;;;14.50;99.90;;;;;;5057046;28;20025;-83
2021/09/07 05:15:25;;;;;;;14.75;8.98;;;14.50;99.90;;;;;;5060375;28;20037;-84
2021/09/07 05:17:51;;;;;;;15.65;8.48;;;14.50;99.90;;;;;;5054652;28;20009;-85
2021/09/07 05:20:16;;;;;;;14.13;8.05;;;14.60;99.90;;;;;;5038026;28;20037;-84
2021/09/07 05:22:42;;;;;;;12.32;8.55;;;14.50;99.90;;;;;;5054628;28;20030;-84
2021/09/07 05:25:08;;;;;;;14.10;8.98;;;14.60;99.90;;;;;;5044293;28;20029;-84
2021/09/07 05:27:35;;;;;;;13.55;8.23;;;14.60;99.90;;;;;;5054685;28;20048;-85
2021/09/07 05:30:03;;;;;;;14.10;8.75;;;14.60;99.90;;;;;;5055959;28;20030;-84
2021/09/07 05:32:28;;;;;;;14.40;8.77;;;14.60;99.90;;;;;;5055683;28;20013;-85
2021/09/07 05:34:54;;;;;;;17.38;9.15;;;14.60;99.90;;;;;;5055717;28;20060;-84
2021/09/07 05:37:20;;;;;;;14.23;8.52;;;14.60;99.90;;;;;;5055585;28;20033;-85
2021/09/07 05:39:46;;;;;;;14.77;8.40;;;14.60;99.90;;;;;;5055250;28;20052;-85
2021/09/07 05:42:11;;;;;;;15.43;8.75;;;14.60;99.90;;;;;;5055022;28;20037;-84
2021/09/07 05:44:37;;;;;;;14.38;8.70;;;14.60;99.90;;;;;;5055541;28;20025;-84
2021/09/07 05:47:03;;;;;;;13.15;8.68;;;14.60;99.90;;;;;;5053913;28;20064;-84
2021/09/07 05:49:29;;;;;;;14.70;8.02;;;14.60;99.90;;;;;;5039915;28;20037;-84
2021/09/07 05:51:54;;;;;;;13.18;8.43;;;14.70;99.90;;;;;;5057761;28;20033;-84
2021/09/07 05:54:20;;;;;;;14.18;8.05;;;14.70;99.90;;;;;;5073113;28;20079;-84
2021/09/07 05:56:46;;;;;;;12.93;8.40;;;14.60;99.90;;;;;;5064477;28;20033;-84
2021/09/07 05:59:12;;;;;;;15.77;9.10;;;14.60;99.90;;;;;;5037150;28;20025;-84
2021/09/07 06:01:38;;;;;;;12.63;7.97;;;14.60;99.90;;;;;;5033596;28;20033;-85
2021/09/07 06:04:04;;;;;;;14.10;8.43;;;14.60;99.90;;;;;;5033401;28;20472;-84
2021/09/07 06:06:30;;;;;;;15.00;8.65;;;14.60;99.90;;;;;;5034178;28;20462;-84
2021/09/07 06:08:56;;;;;;;13.57;8.65;;;14.60;99.90;;;;;;5045317;28;20033;-84
2021/09/07 06:11:21;;;;;;;18.17;8.48;;;14.70;99.90;;;;;;5047918;28;20053;-85
2021/09/07 06:13:47;;;;;;;13.43;8.45;;;14.80;99.90;;;;;;5052690;28;20021;-84
2021/09/07 06:16:13;;;;;;;14.85;9.13;;;14.70;99.90;;;;;;5052909;28;20114;-84
2021/09/07 06:18:38;;;;;;;15.77;9.23;;;14.80;99.90;;;;;;5052996;28;20024;-85
2021/09/07 06:21:04;;;;;;;15.77;9.25;;;14.80;99.90;;;;;;5036442;28;20416;-84
2021/09/07 06:24:01;;;;;;;14.43;9.20;;;14.70;99.90;;;;;;5053616;28;20025;-85
2021/09/07 06:26:27;;;;;;;15.38;8.85;;;14.80;99.90;;;;;;5047169;28;20081;-83
2021/09/07 06:28:53;;;;;;;13.55;8.05;;;14.80;99.90;;;;;;5053767;28;20026;-83
2021/09/07 06:31:19;;;;;;;14.70;9.45;;;14.80;99.90;;;;;;5052793;28;20037;-85
2021/09/07 06:33:44;;;;;;;16.33;9.27;;;15.00;99.90;;;;;;5053344;28;20029;-84
2021/09/07 06:36:10;;;;;;;12.90;8.45;;;14.70;99.90;;;;;;5052903;28;20033;-84
2021/09/07 06:38:36;;;;;;;12.05;8.57;;;14.70;99.90;;;;;;5052412;28;20292;-84
2021/09/07 06:41:03;;;;;;;13.73;8.50;;;14.80;99.90;;;;;;5052853;28;20025;-84
2021/09/07 06:43:29;;;;;;;18.67;9.25;;;14.80;99.90;;;;;;5048155;28;20048;-86
2021/09/07 06:45:55;;;;;;;12.45;7.68;;;14.90;99.90;;;;;;5052409;28;20022;-86
2021/09/07 06:48:20;;;;;;;12.75;8.10;;;15.10;99.90;;;;;;5050950;28;20045;-87
2021/09/07 06:50:46;;;;;;;16.50;7.95;;;15.20;99.90;;;;;;5030007;28;20029;-86
2021/09/07 06:53:11;;;;;;;14.73;8.48;;;15.30;99.90;;;;;;5014160;28;20048;-86
2021/09/07 06:55:38;;;;;;;12.52;8.43;;;15.40;99.90;;;;;;5031412;28;20033;-86
2021/09/07 06:58:04;;;;;;;15.02;9.80;;;15.50;99.90;;;;;;5031030;28;20030;-86
2021/09/07 07:00:30;;;;;;;13.95;9.02;;;15.40;99.90;;;;;;5017843;28;20096;-86
2021/09/07 07:02:55;;;;;;;15.18;8.98;;;15.30;99.90;;;;;;5056293;22;20041;-83
2021/09/07 07:05:21;;;;;;;18.98;9.48;;;15.20;99.90;;;;;;5040665;28;20029;-83
2021/09/07 07:07:46;;;;;;;15.18;9.18;;;15.30;99.90;;;;;;5041245;28;20168;-84
2021/09/07 07:10:12;;;;;;;15.13;10.18;;;15.40;99.90;;;;;;5058752;28;20032;-83
2021/09/07 07:12:38;;;;;;;18.98;11.32;;;15.70;99.90;;;;;;5061963;28;20037;-83
2021/09/07 07:15:04;;;;;;;16.92;11.23;;;15.70;99.90;;;;;;5057961;28;20020;-84
2021/09/07 07:17:29;;;;;;;16.38;10.60;;;15.90;99.90;;;;;;5058404;28;20116;-84
2021/09/07 07:19:55;;;;;;;16.17;10.30;;;16.00;99.90;;;;;;5057649;28;20056;-84
2021/09/07 07:22:24;;;;;;;18.77;10.25;;;16.20;99.90;;;;;;5037143;28;20093;-83
2021/09/07 07:24:49;;;;;;;18.05;10.23;;;16.40;99.90;;;;;;5038031;28;20155;-84
2021/09/07 07:27:15;;;;;;;19.00;9.98;;;16.50;99.90;;;;;;5035777;28;20489;-84
2021/09/07 07:29:41;;;;;;;18.33;10.48;;;16.60;99.90;;;;;;5019988;28;20037;-84
2021/09/07 07:32:07;;;;;;;16.90;10.18;;;16.70;99.90;;;;;;5038106;28;20083;-84
2021/09/07 07:34:32;;;;;;;17.27;10.50;;;16.90;99.90;;;;;;5019982;28;20036;-83
2021/09/07 07:37:00;;;;;;;18.05;10.45;;;16.80;99.90;;;;;;5038379;28;20052;-83
2021/09/07 07:39:25;;;;;;;17.08;10.13;;;16.90;99.90;;;;;;5039709;28;20026;-84
2021/09/07 07:41:51;;;;;;;15.25;9.43;;;17.00;99.90;;;;;;5038488;28;20644;-84
2021/09/07 07:44:16;;;;;;;17.20;9.30;;;17.20;99.90;;;;;;5020761;28;20032;-84
2021/09/07 07:46:42;;;;;;;16.02;9.23;;;17.40;99.90;;;;;;5021367;28;20088;-84
2021/09/07 07:49:08;;;;;;;17.95;9.70;;;17.70;99.90;;;;;;5044355;28;20025;-84
2021/09/07 07:51:33;;;;;;;15.80;8.63;;;17.90;99.90;;;;;;5053846;28;20051;-84
2021/09/07 07:53:59;;;;;;;17.63;9.25;;;18.10;99.90;;;;;;5037604;28;20112;-84
2021/09/07 07:56:25;;;;;;;13.75;8.73;;;18.20;99.90;;;;;;5027174;28;20044;-84
2021/09/07 07:58:51;;;;;;;16.23;9.15;;;18.30;99.90;;;;;;5039328;28;20093;-84
2021/09/07 08:01:16;;;;;;;18.70;8.57;;;18.20;99.90;;;;;;5039561;28;20548;-84
2021/09/07 08:03:46;;;;;;;14.38;8.93;;;18.00;99.90;;;;;;5057950;28;20025;-84
2021/09/07 08:06:12;;;;;;;22.13;9.60;;;17.90;99.90;;;;;;5031433;28;20033;-83
2021/09/07 08:08:38;;;;;;;19.55;9.18;;;18.10;99.90;;;;;;5057252;28;20029;-84
2021/09/07 08:11:03;;;;;;;15.68;9.00;;;18.20;99.90;;;;;;5056961;28;20032;-84
2021/09/07 08:13:29;;;;;;;15.13;8.93;;;18.20;99.90;;;;;;5056937;28;20028;-84
2021/09/07 08:15:55;;;;;;;16.38;8.50;;;18.50;99.90;;;;;;5056295;28;20048;-84
2021/09/07 08:18:20;;;;;;;16.77;8.32;;;18.80;99.90;;;;;;5057345;28;20025;-84
2021/09/07 08:20:48;;;;;;;22.60;8.65;;;19.00;99.90;;;;;;5057304;28;20025;-84
2021/09/07 08:23:14;;;;;;;16.13;8.10;;;19.10;99.90;;;;;;5038507;28;20021;-84
2021/09/07 08:25:40;;;;;;;18.30;8.25;;;19.00;99.90;;;;;;5057370;28;20036;-84
2021/09/07 08:28:05;;;;;;;13.07;8.30;;;19.10;99.90;;;;;;5058110;28;20060;-84
2021/09/07 08:30:31;;;;;;;12.80;8.73;;;19.00;99.90;;;;;;5040248;28;20027;-84
2021/09/07 08:32:57;;;;;;;16.30;8.18;;;19.10;99.90;;;;;;5027039;28;20500;-84
2021/09/07 08:35:23;;;;;;;14.07;8.00;;;19.10;99.90;;;;;;5037009;28;20219;-84
2021/09/07 08:37:48;;;;;;;13.90;8.32;;;19.20;99.90;;;;;;5017900;28;20124;-84
2021/09/07 08:40:14;;;;;;;16.92;8.65;;;19.20;99.90;;;;;;5037244;28;20051;-84
2021/09/07 08:42:40;;;;;;;16.30;7.60;;;19.50;99.90;;;;;;5025927;28;20033;-84
2021/09/07 08:45:09;;;;;;;12.15;8.43;;;19.60;99.90;;;;;;5019277;28;20022;-84
2021/09/07 08:47:35;;;;;;;13.23;8.18;;;19.70;99.90;;;;;;5019788;28;20021;-84
2021/09/07 08:50:02;;;;;;;16.65;7.68;;;19.90;99.90;;;;;;5025792;28;20509;-84
2021/09/07 08:52:28;;;;;;;12.02;7.47;;;20.20;99.90;;;;;;5038214;28;20021;-84
2021/09/07 08:54:54;;;;;;;16.08;7.82;;;20.40;99.90;;;;;;5046211;28;20025;-84
2021/09/07 08:57:19;;;;;;;13.85;7.95;;;20.40;99.90;;;;;;5032316;28;20028;-84
2021/09/07 08:59:58;;;;;;;12.88;7.38;;;20.60;99.90;;;;;;5034344;28;20079;-84
2021/09/07 09:02:25;;;;;;;11.30;6.72;;;20.70;99.90;;;;;;5039002;28;20032;-83
2021/09/07 09:04:52;;;;;;;10.93;6.68;;;20.80;99.90;;;;;;5038722;28;20134;-84
2021/09/07 09:07:21;;;;;;;11.93;6.45;;;21.10;99.90;;;;;;5051014;28;20033;-83
2021/09/07 09:09:49;;;;;;;13.20;6.65;;;21.20;99.90;;;;;;5024061;28;20036;-83
2021/09/07 09:12:16;;;;;;;11.75;6.45;;;21.00;99.90;;;;;;5028773;28;20020;-84
2021/09/07 09:14:47;;;;;;;13.02;6.20;;;21.00;99.90;;;;;;5055127;28;20029;-84
2021/09/07 09:17:22;;;;;;;9.75;5.95;;;21.40;99.90;;;;;;5051492;28;20024;-83
2021/09/07 09:19:51;;;;;;;15.45;6.22;;;21.70;99.90;;;;;;5051248;28;20436;-84
2021/09/07 09:22:17;;;;;;;11.45;6.03;;;21.90;99.90;;;;;;5051132;28;20432;-83
2021/09/07 09:24:43;;;;;;;12.43;6.28;;;21.90;99.90;;;;;;5049985;28;20033;-83
2021/09/07 09:27:09;;;;;;;10.00;5.80;;;21.90;99.90;;;;;;5051449;28;20021;-83
2021/09/07 09:29:37;;;;;;;10.55;5.63;;;22.10;99.90;;;;;;5032928;28;20056;-83
2021/09/07 09:32:04;;;;;;;12.27;6.20;;;22.40;99.10;;;;;;5049844;28;20025;-81
2021/09/07 09:34:31;;;;;;;14.80;5.75;;;22.50;99.90;;;;;;5050820;28;20032;-83
2021/09/07 09:37:06;;;;;;;11.27;5.50;;;22.80;99.90;;;;;;5050515;28;20032;-83
2021/09/07 09:39:46;;;;;;;8.82;5.30;;;22.90;99.60;;;;;;5050399;28;20508;-83
2021/09/07 09:42:26;;;;;;;10.73;5.70;;;23.10;98.80;;;;;;5049783;28;20025;-85
2021/09/07 09:45:01;;;;;;;8.82;5.15;;;23.10;98.30;;;;;;5051051;28;20473;-84
2021/09/07 09:47:43;;;;;;;10.07;4.78;;;23.20;96.00;;;;;;5050628;28;20025;-84
2021/09/07 09:50:10;;;;;;;11.25;4.95;;;23.30;95.40;;;;;;5051960;28;20021;-84
2021/09/07 09:52:37;;;;;;;7.30;4.65;;;23.30;94.60;;;;;;5054456;28;20035;-85
2021/09/07 09:55:08;;;;;;;9.43;4.60;;;23.30;92.90;;;;;;5037015;28;20029;-84
2021/09/07 09:57:36;;;;;;;7.88;4.78;;;23.50;92.80;;;;;;5036587;28;20033;-84
2021/09/07 10:00:07;;;;;;;13.40;4.82;;;23.70;93.20;;;;;;5034933;28;20029;-85
2021/09/07 10:02:33;;;;;;;9.57;4.40;;;23.90;92.00;;;;;;5001034;28;1062200;-84
2021/09/07 10:04:59;;;;;;;9.70;4.97;;;24.10;91.90;;;;;;5056909;28;20397;-84
2021/09/07 10:07:26;;;;;;;6.93;4.22;;;24.10;92.30;;;;;;5055418;28;20072;-84
2021/09/07 10:09:53;;;;;;;7.47;4.65;;;24.10;91.80;;;;;;5038275;28;20047;-82
2021/09/07 10:12:29;;;;;;;8.10;4.90;;;24.30;91.70;;;;;;5064531;28;20028;-84
2021/09/07 10:15:11;;;;;;;6.80;4.53;;;24.30;90.60;;;;;;5076662;28;20024;-82
2021/09/07 10:17:51;;;;;;;8.50;4.25;;;24.40;90.70;;;;;;5037764;28;20092;-83
2021/09/07 10:20:45;;;;;;;6.85;4.60;;;24.60;90.60;;;;;;5026935;28;20378;-83
2021/09/07 10:25:46;;;;;;;8.38;4.72;;;24.80;89.10;;;;;;5056049;28;20444;-83
2021/09/07 10:28:12;;;;;;;7.40;4.78;;;24.90;90.00;;;;;;5057532;28;20444;-83
2021/09/07 10:30:58;;;;;;;8.68;4.55;;;25.00;90.10;;;;;;5039453;28;20047;-83
2021/09/07 10:33:29;;;;;;;9.63;5.45;;;25.20;91.20;;;;;;5056460;28;20490;-82
2021/09/07 10:36:11;;;;;;;7.70;4.63;;;25.20;90.50;;;;;;5057573;28;20021;-83
2021/09/07 10:38:39;;;;;;;9.25;5.00;;;25.30;90.00;;;;;;5057140;28;20017;-83
2021/09/07 10:41:05;;;;;;;7.70;4.53;;;25.30;90.20;;;;;;5038853;28;20020;-83
2021/09/07 10:43:48;;;;;;;6.53;4.22;;;25.40;90.50;;;;;;5057395;28;20021;-83
2021/09/07 10:46:35;;;;;;;6.53;4.38;;;25.50;88.20;;;;;;5057447;28;20079;-83
2021/09/07 10:49:22;;;;;;;8.80;4.93;;;25.60;88.60;;;;;;5055638;28;20068;-82
2021/09/07 10:52:15;;;;;;;9.10;5.25;;;25.60;85.70;;;;;;5039915;28;20067;-84
2021/09/07 10:54:50;;;;;;;7.18;4.65;;;25.90;85.00;;;;;;5058197;28;20021;-82
2021/09/07 10:57:34;;;;;;;7.53;4.72;;;25.80;85.60;;;;;;5042726;28;20025;-84
2021/09/07 11:00:10;;;;;;;7.95;4.70;;;25.90;86.00;;;;;;5056183;28;20025;-83
2021/09/07 11:02:43;;;;;;;7.22;4.50;;;26.10;85.10;;;;;;5038037;28;20036;-82
2021/09/07 11:05:10;;;;;;;7.68;4.60;;;25.90;84.10;;;;;;5056157;28;20151;-81
2021/09/07 11:07:43;;;;;;;7.18;4.35;;;26.00;83.00;;;;;;5037608;28;20032;-81
2021/09/07 11:10:14;;;;;;;8.20;4.65;;;25.90;82.20;;;;;;5057110;28;20087;-83
2021/09/07 11:12:50;;;;;;;8.23;4.63;;;25.70;80.90;;;;;;5067600;28;20435;-83
2021/09/07 11:15:23;;;;;;;8.20;5.03;;;25.80;82.90;;;;;;5077174;28;20024;-83
2021/09/07 11:17:53;;;;;;;9.38;4.70;;;25.80;82.20;;;;;;5055599;28;20072;-83
2021/09/07 11:20:26;;;;;;;9.17;4.67;;;25.90;81.20;;;;;;5037368;28;20021;-83
2021/09/07 11:22:53;;;;;;;6.63;4.07;;;25.90;80.40;;;;;;5038193;28;20354;-81
2021/09/07 11:25:22;;;;;;;8.07;4.68;;;25.80;82.00;;;;;;5056297;28;20100;-83
2021/09/07 11:27:58;;;;;;;6.55;4.10;;;26.20;81.00;;;;;;5055600;28;20029;-83
2021/09/07 11:30:38;;;;;;;6.85;4.53;;;26.30;80.30;;;;;;5056496;28;20448;-82
2021/09/07 11:33:07;;;;;;;6.57;4.53;;;26.30;82.10;;;;;;5039136;28;20075;-83
2021/09/07 11:35:42;;;;;;;7.28;4.57;;;26.30;79.10;;;;;;5055855;28;20409;-83
2021/09/07 11:38:31;;;;;;;7.18;4.50;;;26.40;79.20;;;;;;5037587;28;20041;-80
2021/09/07 11:41:00;;;;;;;9.65;4.45;;;26.60;80.20;;;;;;5038340;28;20031;-83
2021/09/07 11:43:41;;;;;;;7.20;4.28;;;26.80;80.00;;;;;;5038584;28;20025;-83
2021/09/07 11:46:23;;;;;;;6.57;4.18;;;26.90;79.90;;;;;;5054736;28;20029;-83
2021/09/07 11:48:54;;;;;;;6.85;4.63;;;26.80;77.00;;;;;;5038427;28;20059;-83
2021/09/07 11:51:30;;;;;;;6.80;4.57;;;27.00;78.90;;;;;;5056724;28;20021;-82
2021/09/07 11:53:59;;;;;;;6.47;4.65;;;26.80;77.20;;;;;;5037843;28;22076;-83
2021/09/07 11:56:30;;;;;;;7.68;4.65;;;26.80;77.10;;;;;;5058433;28;20046;-83
2021/09/07 11:59:16;;;;;;;7.25;4.20;;;26.90;79.30;;;;;;5050185;28;20370;-83
2021/09/07 12:01:44;;;;;;;6.70;3.88;;;27.10;75.40;;;;;;5039827;28;20033;-83
2021/09/07 12:04:14;;;;;;;7.18;4.03;;;27.40;74.70;;;;;;5056580;28;20095;-83
2021/09/07 12:06:48;;;;;;;6.40;4.60;;;27.60;74.90;;;;;;5038879;28;20084;-83
2021/09/07 12:09:23;;;;;;;7.88;4.75;;;27.40;73.40;;;;;;5039224;28;20029;-83
2021/09/07 12:12:05;;;;;;;6.90;4.40;;;27.70;74.10;;;;;;5041166;28;20028;-83
2021/09/07 12:14:45;;;;;;;7.05;4.20;;;27.90;72.50;;;;;;5058663;28;20028;-83
2021/09/07 12:17:15;;;;;;;8.63;4.37;;;27.80;71.50;;;;;;5077355;28;20054;-82
2021/09/07 12:19:54;;;;;;;7.00;4.25;;;27.90;72.70;;;;;;5054876;28;20040;-83
2021/09/07 12:22:24;;;;;;;7.85;4.40;;;27.60;72.40;;;;;;5058243;28;20028;-82
2021/09/07 12:25:08;;;;;;;7.30;4.85;;;27.80;71.90;;;;;;5038148;28;20021;-83
2021/09/07 12:27:54;;;;;;;7.43;4.18;;;27.50;70.30;;;;;;5037451;28;20102;-82
2021/09/07 12:30:23;;;;;;;7.20;4.00;;;27.60;71.00;;;;;;5022777;28;20029;-81
2021/09/07 12:32:50;;;;;;;6.38;4.38;;;27.60;72.20;;;;;;5032413;28;20541;-82
2021/09/07 12:35:40;;;;;;;7.70;4.82;;;27.50;70.90;;;;;;5014709;28;20497;-81
2021/09/07 12:38:14;;;;;;;8.48;4.32;;;27.60;73.10;;;;;;5043611;28;20105;-81
2021/09/07 12:40:45;;;;;;;7.93;4.60;;;27.70;71.70;;;;;;5052542;28;20032;-82
2021/09/07 12:43:32;;;;;;;6.65;4.78;;;27.80;71.00;;;;;;5052662;28;20516;-83
2021/09/07 12:46:03;;;;;;;6.47;4.50;;;28.00;70.80;;;;;;5052233;28;20187;-82